Time;durP1;ratioP1;P1;durP2;ratioP2;P2;SDS_P1;SDS_P2;PMS_P1;PMS_P2;Temp;Humidity;BMP_temperature;BMP_pressure;BME280_temperature;BME280_humidity;BME280_pressure;Samples;Min_cycle;Max_cycle;Signal;HPM_P1;HPM_P2
2022/06/22 00:01:45;;;;;;;4.72;2.33;;;;;;;20.00;64.08;99582.81;6269448;22;20023;-84
2022/06/22 00:04:22;;;;;;;3.58;2.47;;;;;;;20.02;63.43;99595.06;6270435;22;20453;-84
2022/06/22 00:06:58;;;;;;;3.83;2.50;;;;;;;20.01;64.05;99590.75;6241648;22;20016;-85
2022/06/22 00:09:38;;;;;;;4.43;2.45;;;;;;;19.95;64.38;99600.47;6241545;22;20015;-84
2022/06/22 00:12:06;;;;;;;4.85;2.30;;;;;;;20.07;64.03;99601.22;6244088;22;20015;-84
2022/06/22 00:14:36;;;;;;;4.70;2.40;;;;;;;20.12;63.52;99612.50;6269145;22;20307;-90
2022/06/22 00:17:02;;;;;;;5.10;2.40;;;;;;;19.95;64.27;99597.66;6244852;22;20016;-90
2022/06/22 00:19:35;;;;;;;4.30;2.30;;;;;;;20.00;64.29;99613.78;6250091;22;20094;-89
2022/06/22 00:22:01;;;;;;;5.70;2.40;;;;;;;19.97;62.92;99607.13;6284351;22;20078;-90
2022/06/22 00:24:26;;;;;;;3.55;2.30;;;;;;;20.01;62.97;99620.94;6253012;22;20006;-89
2022/06/22 00:26:57;;;;;;;4.68;2.00;;;;;;;20.02;63.02;99617.59;6299284;22;20004;-91
2022/06/22 00:29:25;;;;;;;2.65;2.08;;;;;;;20.10;62.51;99629.13;6255609;22;20061;-90
2022/06/22 00:31:50;;;;;;;3.55;2.17;;;;;;;20.11;61.61;99627.84;6245572;22;20006;-85
2022/06/22 00:34:25;;;;;;;4.25;2.20;;;;;;;20.05;62.02;99615.06;6270241;22;20035;-85
2022/06/22 00:37:05;;;;;;;3.30;1.95;;;;;;;19.98;62.26;99628.34;6270122;22;20015;-85
2022/06/22 00:39:32;;;;;;;5.65;2.35;;;;;;;19.97;62.46;99637.31;6269722;22;20095;-85
2022/06/22 00:42:21;;;;;;;4.07;2.00;;;;;;;19.86;62.58;99626.03;6219665;22;20038;-85
2022/06/22 00:44:56;;;;;;;4.28;2.08;;;;;;;19.87;62.08;99627.59;6242983;22;20019;-85
2022/06/22 00:47:30;;;;;;;5.25;2.10;;;;;;;19.90;62.51;99635.78;6269454;22;20081;-85
2022/06/22 00:49:59;;;;;;;4.63;2.20;;;;;;;19.93;62.36;99634.00;6219188;22;20012;-85
2022/06/22 00:52:40;;;;;;;2.40;2.03;;;;;;;19.93;62.76;99626.31;6245194;22;20385;-85
2022/06/22 00:55:30;;;;;;;3.80;2.40;;;;;;;19.90;63.43;99629.38;6245217;22;20050;-83
2022/06/22 00:57:59;;;;;;;4.75;2.50;;;;;;;19.95;64.67;99637.81;6271727;22;20012;-85
2022/06/22 01:00:26;;;;;;;5.13;2.35;;;;;;;19.89;64.85;99630.66;6274951;22;20018;-85
2022/06/22 01:03:00;;;;;;;5.70;2.80;;;;;;;19.90;65.49;99632.94;6219338;22;20008;-85
2022/06/22 01:05:36;;;;;;;3.00;2.13;;;;;;;19.92;65.04;99621.19;6217631;22;20011;-84
2022/06/22 01:08:07;;;;;;;3.55;2.35;;;;;;;19.85;65.07;99625.28;6243941;22;20039;-86
2022/06/22 01:10:58;;;;;;;3.00;2.40;;;;;;;19.88;65.27;99623.50;6270184;22;20422;-84
2022/06/22 01:13:39;;;;;;;6.40;2.33;;;;;;;19.80;66.28;99611.97;6242881;22;20105;-85
2022/06/22 01:16:09;;;;;;;3.63;2.50;;;;;;;19.77;65.64;99612.22;6243669;22;20023;-84
2022/06/22 01:18:38;;;;;;;5.55;2.33;;;;;;;19.72;66.43;99610.19;6268550;22;20102;-85
2022/06/22 01:21:14;;;;;;;3.97;2.42;;;;;;;19.74;65.18;99597.13;6244084;22;20065;-84
2022/06/22 01:24:05;;;;;;;4.68;2.22;;;;;;;19.78;65.68;99592.00;6269935;22;20031;-85
2022/06/22 01:26:46;;;;;;;2.97;2.20;;;;;;;19.85;66.30;99596.38;6243038;22;20031;-84
2022/06/22 01:29:15;;;;;;;6.10;2.58;;;;;;;19.88;65.22;99595.34;6244114;22;20015;-84
2022/06/22 01:31:59;;;;;;;3.60;2.40;;;;;;;19.83;65.40;99577.19;6242991;22;20008;-90
2022/06/22 01:34:30;;;;;;;3.90;2.53;;;;;;;19.85;65.37;99585.13;6244891;22;20020;-89
2022/06/22 01:37:03;;;;;;;5.03;2.25;;;;;;;19.84;65.30;99584.34;6218151;22;20015;-90
2022/06/22 01:39:29;;;;;;;4.27;2.40;;;;;;;19.83;66.15;99587.66;6268912;22;20011;-89
2022/06/22 01:42:00;;;;;;;2.95;2.40;;;;;;;19.92;66.32;99590.22;6269213;22;20516;-89
2022/06/22 01:44:31;;;;;;;3.65;2.20;;;;;;;19.93;66.50;99591.78;6269598;22;20015;-90
2022/06/22 01:47:16;;;;;;;3.50;2.28;;;;;;;19.91;67.84;99592.28;6246075;22;20086;-89
2022/06/22 01:50:06;;;;;;;5.90;2.50;;;;;;;19.90;67.87;99592.78;6269446;22;20035;-89
2022/06/22 01:52:37;;;;;;;3.97;2.30;;;;;;;19.83;67.44;99598.91;6269680;22;20020;-89
2022/06/22 01:55:16;;;;;;;5.70;2.40;;;;;;;19.74;67.39;99604.78;6243082;22;20020;-89
2022/06/22 01:57:46;;;;;;;5.97;2.22;;;;;;;19.67;67.68;99597.63;6243719;22;20020;-89
2022/06/22 02:00:16;;;;;;;4.13;2.35;;;;;;;19.74;66.82;99614.00;6244648;22;20062;-90
2022/06/22 02:02:45;;;;;;;3.85;2.22;;;;;;;19.74;65.29;99607.59;6242444;22;20016;-89
2022/06/22 02:05:18;;;;;;;4.78;2.25;;;;;;;19.78;63.78;99608.13;6269244;22;20012;-88
2022/06/22 02:08:10;;;;;;;4.63;2.22;;;;;;;19.80;63.30;99602.75;6243122;22;20586;-89
2022/06/22 02:10:46;;;;;;;4.47;2.55;;;;;;;19.85;65.90;99613.25;6268239;22;20011;-89
2022/06/22 02:13:29;;;;;;;3.97;2.50;;;;;;;19.81;68.79;99598.69;6244682;22;20437;-89
2022/06/22 02:16:33;;;;;;;4.75;2.10;;;;;;;19.79;69.65;99592.78;6245478;22;20535;-89
2022/06/22 02:18:58;;;;;;;;;;;;;;;19.77;69.30;99589.72;6206391;22;20023;-89
2022/06/22 02:21:40;;;;;;;3.95;2.33;;;;;;;19.74;68.77;99582.28;6272410;22;19915;-90
2022/06/22 02:24:28;;;;;;;4.00;2.30;;;;;;;19.70;68.08;99582.53;6245726;22;20022;-90
2022/06/22 02:27:03;;;;;;;5.47;2.13;;;;;;;19.67;68.10;99563.09;6272923;22;20020;-89
2022/06/22 02:29:32;;;;;;;4.80;2.42;;;;;;;19.71;66.76;99586.13;6270560;22;20008;-85
2022/06/22 02:32:02;;;;;;;3.35;2.10;;;;;;;19.67;66.27;99588.41;6246108;22;20552;-84
2022/06/22 02:34:29;;;;;;;3.88;2.35;;;;;;;19.60;67.08;99581.25;6271699;22;20434;-84
2022/06/22 02:36:55;;;;;;;4.85;2.28;;;;;;;19.60;67.87;99580.50;6245266;22;20015;-84
2022/06/22 02:39:23;;;;;;;2.90;2.30;;;;;;;19.66;68.26;99589.69;6220719;22;20488;-84
2022/06/22 02:44:35;;;;;;;5.32;2.25;;;;;;;19.63;64.48;99585.88;6250040;22;20051;-84
2022/06/22 02:47:17;;;;;;;4.38;2.53;;;;;;;19.70;68.04;99598.66;6268965;22;20003;-84
2022/06/22 02:50:17;;;;;;;5.10;2.30;;;;;;;19.67;69.42;99591.22;6245522;22;20454;-84
2022/06/22 02:52:47;;;;;;;4.63;2.33;;;;;;;19.66;68.95;99589.69;6263450;22;20042;-84
2022/06/22 02:55:16;;;;;;;8.32;2.42;;;;;;;19.64;69.13;99592.25;6244812;22;20068;-84
2022/06/22 02:57:52;;;;;;;3.75;2.25;;;;;;;19.67;69.40;99585.59;6245723;22;20065;-83
2022/06/22 03:00:47;;;;;;;4.28;2.50;;;;;;;19.65;69.68;99593.81;6271302;22;20091;-83
2022/06/22 03:03:14;;;;;;;3.88;2.40;;;;;;;19.63;69.13;99599.16;6213194;22;20012;-84
2022/06/22 03:05:42;;;;;;;5.45;2.40;;;;;;;19.50;67.41;99606.03;6219938;22;20018;-89
2022/06/22 03:08:08;;;;;;;4.25;2.45;;;;;;;19.53;67.14;99621.16;6247435;22;20020;-88
2022/06/22 03:10:45;;;;;;;3.65;2.20;;;;;;;19.47;68.02;99618.31;6246470;22;20003;-89
2022/06/22 03:13:12;;;;;;;6.45;2.47;;;;;;;19.45;68.30;99615.22;6273785;22;20014;-89
2022/06/22 03:15:38;;;;;;;5.65;2.40;;;;;;;19.39;67.28;99617.25;6272917;22;20053;-89
2022/06/22 03:18:04;;;;;;;6.55;2.55;;;;;;;19.39;68.49;99620.06;6246974;22;20007;-89
2022/06/22 03:20:35;;;;;;;3.08;2.20;;;;;;;19.42;67.98;99635.94;6247142;22;20027;-89
2022/06/22 03:23:23;;;;;;;5.32;2.30;;;;;;;19.38;66.41;99626.97;6271212;22;20047;-84
2022/06/22 03:25:58;;;;;;;9.23;2.70;;;;;;;19.47;66.43;99634.44;6247639;22;20016;-84
2022/06/22 03:28:30;;;;;;;4.20;2.20;;;;;;;19.48;67.00;99636.75;6272723;22;20381;-84
2022/06/22 03:31:00;;;;;;;5.77;2.50;;;;;;;19.44;66.53;99630.59;6245953;22;20469;-84
2022/06/22 03:33:30;;;;;;;4.30;2.45;;;;;;;19.37;66.67;99625.41;6271962;22;20020;-84
2022/06/22 03:36:00;;;;;;;4.30;2.50;;;;;;;19.36;66.51;99623.91;6247790;22;20431;-83
2022/06/22 03:38:30;;;;;;;3.35;2.25;;;;;;;19.38;66.12;99626.19;6220986;22;20046;-84
2022/06/22 03:41:02;;;;;;;4.57;2.70;;;;;;;19.39;65.78;99628.50;6246738;22;20382;-84
2022/06/22 03:43:49;;;;;;;3.92;2.40;;;;;;;19.47;65.96;99629.56;6221642;22;20023;-84
2022/06/22 03:46:24;;;;;;;5.28;2.50;;;;;;;19.54;66.33;99629.06;6274166;22;20102;-89
2022/06/22 03:49:00;;;;;;;4.20;2.40;;;;;;;19.58;65.61;99628.03;6246541;22;20366;-87
2022/06/22 03:51:50;;;;;;;5.30;2.90;;;;;;;19.64;65.42;99631.66;6272365;22;20466;-87
2022/06/22 03:54:22;;;;;;;6.40;2.40;;;;;;;19.65;64.97;99630.38;6272302;22;20130;-86
2022/06/22 03:56:56;;;;;;;4.47;2.50;;;;;;;19.60;64.30;99631.13;6272393;22;20015;-87
2022/06/22 03:59:22;;;;;;;3.85;2.17;;;;;;;19.57;64.35;99626.53;6246706;22;20464;-87
2022/06/22 04:01:47;;;;;;;4.78;2.70;;;;;;;19.53;64.34;99621.91;6246620;22;20007;-84
2022/06/22 04:04:13;;;;;;;2.75;2.30;;;;;;;19.51;64.41;99624.47;6221402;22;20470;-87
2022/06/22 04:06:49;;;;;;;4.70;2.40;;;;;;;19.54;64.85;99629.06;6247151;22;20086;-86
2022/06/22 04:09:21;;;;;;;4.35;2.47;;;;;;;19.54;64.18;99628.31;6222390;22;20098;-88
2022/06/22 04:12:02;;;;;;;5.32;2.40;;;;;;;19.61;64.30;99621.44;6273034;22;20016;-89
2022/06/22 04:14:33;;;;;;;3.03;2.10;;;;;;;19.64;64.14;99626.78;6272065;22;20442;-88
2022/06/22 04:17:03;;;;;;;3.85;2.60;;;;;;;19.72;64.35;99635.50;6247100;22;20016;-88
2022/06/22 04:19:32;;;;;;;4.88;2.58;;;;;;;19.76;63.83;99633.97;6247034;22;20457;-88
2022/06/22 04:22:03;;;;;;;3.10;2.20;;;;;;;19.80;63.50;99633.72;6221668;22;20019;-85
2022/06/22 04:24:33;;;;;;;6.10;2.55;;;;;;;19.95;63.32;99646.28;6245904;22;20417;-87
2022/06/22 04:26:58;;;;;;;6.05;2.45;;;;;;;19.99;63.97;99658.03;6271921;22;20012;-88
2022/06/22 04:29:33;;;;;;;3.90;2.60;;;;;;;20.01;65.51;99666.00;6274160;22;20422;-87
2022/06/22 04:32:35;;;;;;;4.38;2.60;;;;;;;19.85;64.90;99672.38;6271219;22;20022;-87
2022/06/22 04:35:37;;;;;;;3.85;2.38;;;;;;;19.89;64.43;99670.06;6193863;22;20434;-87
2022/06/22 04:38:12;;;;;;;5.72;2.50;;;;;;;19.94;65.25;99660.84;6271955;22;20022;-87
2022/06/22 04:40:46;;;;;;;3.88;2.47;;;;;;;19.94;64.66;99655.22;6270862;22;20034;-84
2022/06/22 04:43:12;;;;;;;4.20;2.50;;;;;;;20.13;65.84;99656.28;6245225;22;20122;-87
2022/06/22 04:45:40;;;;;;;3.90;2.65;;;;;;;20.18;65.20;99641.41;6246757;22;20095;-87
2022/06/22 04:48:22;;;;;;;6.70;2.90;;;;;;;20.29;65.48;99652.72;6245192;22;20341;-88
2022/06/22 04:50:51;;;;;;;5.75;4.00;;;;;;;20.37;66.16;99656.53;6246609;22;20161;-88
2022/06/22 04:53:23;;;;;;;3.90;3.00;;;;;;;20.50;66.53;99649.63;6245078;22;20043;-88
2022/06/22 04:55:49;;;;;;;5.38;2.70;;;;;;;20.54;67.33;99633.22;6270746;22;20023;-87
2022/06/22 04:58:30;;;;;;;6.18;2.20;;;;;;;20.47;63.01;99646.53;6220198;22;20024;-88
2022/06/22 05:00:56;;;;;;;4.47;2.58;;;;;;;20.39;63.05;99639.09;6245829;22;20024;-84
2022/06/22 05:03:22;;;;;;;3.22;2.50;;;;;;;20.45;62.01;99637.84;6245579;22;20018;-84
2022/06/22 05:05:47;;;;;;;3.60;2.50;;;;;;;20.42;60.56;99638.09;6245418;22;20015;-84
2022/06/22 05:08:25;;;;;;;3.35;2.25;;;;;;;20.36;60.34;99660.63;6244444;22;20030;-83
2022/06/22 05:11:08;;;;;;;6.00;2.60;;;;;;;20.53;60.70;99648.56;6270514;22;20335;-83
2022/06/22 05:13:38;;;;;;;7.15;5.18;;;;;;;20.54;59.32;99667.03;6270506;22;20035;-83
2022/06/22 05:16:07;;;;;;;5.90;3.35;;;;;;;20.64;60.19;99677.50;6246281;22;20038;-83
2022/06/22 05:18:35;;;;;;;4.20;2.45;;;;;;;20.74;59.17;99678.00;6271637;22;20015;-84
2022/06/22 05:21:11;;;;;;;3.78;2.22;;;;;;;20.87;58.63;99675.38;6246800;22;20008;-84
2022/06/22 05:23:36;;;;;;;5.88;2.47;;;;;;;20.89;57.74;99673.59;6273197;22;20154;-85
2022/06/22 05:26:05;;;;;;;7.78;2.40;;;;;;;20.95;56.00;99679.22;6221034;22;20070;-84
2022/06/22 05:28:39;;;;;;;5.72;2.40;;;;;;;21.04;55.44;99684.56;6245558;22;20468;-85
2022/06/22 05:31:14;;;;;;;4.07;2.10;;;;;;;21.08;55.98;99682.25;6246874;22;20401;-85
2022/06/22 05:33:43;;;;;;;2.60;2.10;;;;;;;21.00;53.69;99681.25;6246293;22;20385;-85
2022/06/22 05:36:11;;;;;;;5.63;2.15;;;;;;;20.94;53.38;99686.16;6246158;22;20039;-85
2022/06/22 05:38:39;;;;;;;2.40;2.10;;;;;;;20.91;53.57;99679.47;6220537;22;20007;-85
2022/06/22 05:41:07;;;;;;;3.25;2.15;;;;;;;20.85;53.82;99683.59;6271116;22;20008;-85
2022/06/22 05:43:35;;;;;;;4.68;2.20;;;;;;;20.88;54.08;99680.53;6246026;22;20015;-85
2022/06/22 05:46:05;;;;;;;3.92;2.20;;;;;;;20.90;52.79;99672.34;6245301;22;20015;-85
2022/06/22 05:48:32;;;;;;;4.22;2.15;;;;;;;20.98;52.20;99668.97;6244594;22;20012;-84
2022/06/22 05:51:13;;;;;;;4.03;2.22;;;;;;;21.10;52.46;99671.22;6246605;22;20008;-85
2022/06/22 05:54:05;;;;;;;6.50;2.42;;;;;;;21.22;52.45;99674.81;6273740;22;20547;-84
2022/06/22 05:57:12;;;;;;;2.78;2.00;;;;;;;21.04;52.62;99676.13;6214510;22;20097;-86
2022/06/22 06:00:20;;;;;;;8.88;2.72;;;;;;;21.09;52.71;99674.56;6201194;22;20511;-85
2022/06/22 06:03:12;;;;;;;6.28;2.42;;;;;;;21.07;53.87;99692.00;6279892;22;20022;-86
2022/06/22 06:05:46;;;;;;;6.10;2.40;;;;;;;21.07;54.82;99694.06;6251128;22;20069;-86
2022/06/22 06:08:22;;;;;;;4.35;2.30;;;;;;;21.07;54.95;99675.06;6251348;22;20011;-86
2022/06/22 06:10:48;;;;;;;5.00;2.30;;;;;;;21.08;53.98;99676.63;6250752;22;20612;-86
2022/06/22 06:13:24;;;;;;;3.58;2.25;;;;;;;21.13;54.18;99680.72;6276688;22;20015;-86
2022/06/22 06:15:55;;;;;;;3.70;2.38;;;;;;;21.06;55.21;99662.28;6226717;22;20030;-84
2022/06/22 06:18:23;;;;;;;5.07;2.30;;;;;;;21.06;55.40;99653.81;6251844;22;20326;-84
2022/06/22 06:20:51;;;;;;;3.08;2.20;;;;;;;20.85;56.08;99646.97;6251725;22;20481;-84
2022/06/22 06:23:33;;;;;;;5.45;2.42;;;;;;;20.78;57.44;99664.41;6226629;22;20090;-84
2022/06/22 06:29:25;;;;;;;4.72;2.60;;;;;;;20.89;58.96;99670.78;6255238;22;20023;-84
2022/06/22 06:32:06;;;;;;;4.75;2.50;;;;;;;20.97;58.96;99671.00;6101645;23;20105;-84
2022/06/22 06:34:42;;;;;;;4.10;2.20;;;;;;;21.02;58.70;99669.47;6126315;23;20590;-85
2022/06/22 06:37:38;;;;;;;3.97;2.42;;;;;;;21.33;58.57;99686.81;6227103;22;20011;-86
2022/06/22 06:40:04;;;;;;;4.70;2.70;;;;;;;21.38;58.42;99666.28;6274964;22;20015;-86
2022/06/22 06:42:38;;;;;;;5.18;2.30;;;;;;;21.63;57.12;99672.03;6279345;22;20015;-86
2022/06/22 06:45:13;;;;;;;3.80;2.30;;;;;;;21.77;57.09;99685.81;6280632;22;20045;-86
2022/06/22 06:47:39;;;;;;;5.75;2.20;;;;;;;21.92;55.09;99674.16;6251843;22;20086;-84
2022/06/22 06:50:20;;;;;;;3.25;2.40;;;;;;;22.08;55.54;99664.06;6254513;22;19999;-86
2022/06/22 06:52:58;;;;;;;4.28;2.30;;;;;;;22.37;53.47;99668.16;6279404;22;20039;-86
2022/06/22 06:55:33;;;;;;;3.75;2.33;;;;;;;22.63;52.18;99662.78;6228319;22;20049;-85
2022/06/22 06:58:11;;;;;;;3.92;1.90;;;;;;;22.67;49.51;99674.56;6279471;22;20467;-85
2022/06/22 07:00:36;;;;;;;4.10;2.00;;;;;;;22.82;48.48;99680.59;6253519;22;20317;-85
2022/06/22 07:03:06;;;;;;;2.47;1.80;;;;;;;23.09;45.80;99673.88;6253436;22;20014;-86
2022/06/22 07:05:31;;;;;;;4.95;1.90;;;;;;;23.39;46.14;99675.81;6227834;22;20019;-86
2022/06/22 07:08:10;;;;;;;3.40;1.88;;;;;;;23.51;45.55;99678.00;6228058;22;20451;-86
2022/06/22 07:10:40;;;;;;;4.00;1.90;;;;;;;23.47;45.72;99682.44;6253415;22;20399;-86
2022/06/22 07:13:17;;;;;;;3.38;1.70;;;;;;;23.13;42.85;99684.91;6253545;22;20050;-86
2022/06/22 07:15:45;;;;;;;1.85;1.70;;;;;;;22.76;40.16;99699.72;6277929;22;20007;-86
2022/06/22 07:18:33;;;;;;;2.28;1.60;;;;;;;22.79;41.35;99704.28;6227908;22;20022;-85
2022/06/22 07:21:11;;;;;;;2.25;1.70;;;;;;;22.86;42.19;99698.03;6278840;22;20082;-85
2022/06/22 07:24:13;;;;;;;2.47;1.73;;;;;;;22.85;40.41;99713.47;6278589;22;20326;-86
2022/06/22 07:27:01;;;;;;;3.05;1.60;;;;;;;22.73;41.60;99712.81;6193784;22;20073;-85
2022/06/22 07:29:43;;;;;;;3.42;1.80;;;;;;;22.60;41.75;99697.78;6306121;22;20030;-85
2022/06/22 07:32:22;;;;;;;3.70;1.70;;;;;;;22.29;43.23;99691.34;6253165;22;20458;-84
2022/06/22 07:35:04;;;;;;;3.28;1.95;;;;;;;22.16;43.92;99682.72;6227583;22;20013;-84
2022/06/22 07:37:35;;;;;;;4.03;1.80;;;;;;;22.33;42.60;99680.53;6252365;22;20015;-84
2022/06/22 07:40:16;;;;;;;3.33;1.98;;;;;;;22.75;42.98;99681.19;6224228;22;20063;-84
2022/06/22 07:42:45;;;;;;;3.90;1.90;;;;;;;23.10;41.16;99661.25;6275571;22;20011;-84
2022/06/22 07:45:16;;;;;;;4.32;1.90;;;;;;;23.61;39.64;99658.59;6251096;22;20019;-84
2022/06/22 07:47:51;;;;;;;5.45;2.13;;;;;;;23.71;40.64;99668.22;6250178;22;20137;-84
2022/06/22 07:50:23;;;;;;;3.53;1.75;;;;;;;24.07;39.50;99665.84;6225935;22;20011;-85
2022/06/22 07:52:59;;;;;;;3.53;1.80;;;;;;;24.19;40.63;99666.47;6251082;22;20049;-86
2022/06/22 07:55:39;;;;;;;3.97;2.25;;;;;;;24.53;39.90;99662.53;6276289;22;20023;-87
2022/06/22 07:58:14;;;;;;;3.20;1.67;;;;;;;24.63;38.97;99659.28;6250859;22;20016;-85
2022/06/22 08:00:40;;;;;;;4.07;2.00;;;;;;;24.66;40.04;99658.97;6276304;22;20011;-86
2022/06/22 08:03:44;;;;;;;4.00;1.88;;;;;;;24.81;39.94;99659.19;6250202;22;20469;-85
2022/06/22 08:06:18;;;;;;;2.65;1.70;;;;;;;24.88;35.43;99661.38;6276093;22;20019;-86
2022/06/22 08:08:57;;;;;;;1.95;1.70;;;;;;;24.88;37.23;99655.72;6250037;22;20015;-87
2022/06/22 08:11:41;;;;;;;2.72;1.75;;;;;;;25.26;36.06;99649.78;6251370;22;20073;-84
2022/06/22 08:14:20;;;;;;;3.25;1.70;;;;;;;25.55;35.20;99633.72;6276130;22;20011;-86
2022/06/22 08:16:52;;;;;;;2.40;1.52;;;;;;;25.20;33.82;99657.66;6225128;22;20015;-86
2022/06/22 08:19:19;;;;;;;3.80;1.80;;;;;;;25.39;35.51;99661.13;6250309;22;20019;-86
2022/06/22 08:21:48;;;;;;;3.55;1.77;;;;;;;25.61;35.22;99649.31;6249766;22;19999;-86
2022/06/22 08:24:16;;;;;;;2.50;1.90;;;;;;;25.98;34.09;99646.13;6250262;22;20015;-86
2022/06/22 08:26:42;;;;;;;3.80;1.90;;;;;;;25.19;34.40;99648.41;6275972;22;20018;-86
2022/06/22 08:29:07;;;;;;;3.30;2.03;;;;;;;24.98;35.32;99656.06;6276116;22;20019;-86
2022/06/22 08:31:46;;;;;;;5.00;2.08;;;;;;;24.72;35.75;99656.75;6276248;22;19999;-86
2022/06/22 08:34:15;;;;;;;2.70;1.70;;;;;;;25.12;34.93;99660.41;6276650;22;20015;-86
2022/06/22 08:36:44;;;;;;;5.07;1.80;;;;;;;25.36;35.27;99667.91;6225028;22;20838;-86
2022/06/22 08:39:32;;;;;;;2.72;1.67;;;;;;;25.85;34.56;99668.88;6249930;22;20026;-86
2022/06/22 08:42:09;;;;;;;3.35;1.80;;;;;;;26.01;33.96;99669.81;6276279;22;20004;-86
2022/06/22 08:45:09;;;;;;;3.33;1.75;;;;;;;26.23;33.95;99668.53;6249656;22;20440;-86
2022/06/22 08:47:56;;;;;;;2.80;1.85;;;;;;;26.03;33.96;99660.75;6276019;22;20057;-84
2022/06/22 08:50:58;;;;;;;3.67;1.95;;;;;;;26.42;33.96;99669.09;6302408;22;20492;-84
2022/06/22 08:53:42;;;;;;;7.35;1.92;;;;;;;26.50;33.54;99669.91;6275552;22;20015;-84
2022/06/22 08:56:17;;;;;;;5.60;1.92;;;;;;;26.47;33.54;99671.03;6275865;22;20050;-85
2022/06/22 08:59:05;;;;;;;3.13;1.80;;;;;;;25.82;33.64;99652.97;6224309;22;20015;-84
2022/06/22 09:01:44;;;;;;;4.38;1.98;;;;;;;26.36;35.00;99668.47;6275619;22;20510;-84
2022/06/22 09:04:29;;;;;;;4.72;1.98;;;;;;;26.99;34.65;99657.75;6224063;22;20015;-85
2022/06/22 09:07:04;;;;;;;2.15;1.60;;;;;;;26.82;30.96;99650.41;6302803;22;20047;-84
2022/06/22 09:09:54;;;;;;;3.75;2.00;;;;;;;27.14;31.22;99649.31;6224935;22;20039;-84
2022/06/22 09:12:55;;;;;;;2.05;1.60;;;;;;;26.50;32.35;99650.00;6250307;22;20026;-84
2022/06/22 09:15:41;;;;;;;2.97;1.70;;;;;;;26.56;31.77;99659.16;6249407;22;20019;-84
2022/06/22 09:18:16;;;;;;;3.80;1.88;;;;;;;26.67;32.00;99658.88;6224044;22;20050;-84
2022/06/22 09:21:29;;;;;;;4.25;2.35;;;;;;;26.84;32.88;99659.22;6223563;22;20015;-84
2022/06/22 09:24:05;;;;;;;2.30;2.00;;;;;;;27.09;32.44;99656.69;6208515;22;20022;-84
2022/06/22 09:26:52;;;;;;;3.47;1.73;;;;;;;27.25;32.59;99674.63;6275560;22;20279;-86
2022/06/22 09:29:55;;;;;;;3.55;1.80;;;;;;;27.53;32.03;99653.88;6275780;22;20042;-86
2022/06/22 09:32:49;;;;;;;3.05;2.08;;;;;;;27.17;32.08;99659.59;6224513;22;20039;-86
2022/06/22 09:35:56;;;;;;;3.58;1.83;;;;;;;26.86;32.97;99673.63;6302639;22;20427;-86
2022/06/22 09:38:28;;;;;;;6.47;1.90;;;;;;;26.78;32.89;99678.47;6183299;22;20043;-86
2022/06/22 09:41:18;;;;;;;2.63;2.13;;;;;;;27.29;32.92;99675.03;6303312;22;20437;-85
2022/06/22 09:43:53;;;;;;;2.28;1.73;;;;;;;27.72;32.09;99677.88;6274397;22;20349;-84
2022/06/22 09:46:46;;;;;;;6.53;2.25;;;;;;;27.87;32.16;99665.00;6275372;22;20019;-84
2022/06/22 09:49:29;;;;;;;3.78;1.92;;;;;;;28.06;32.51;99671.13;6273843;22;20050;-84
2022/06/22 09:52:17;;;;;;;3.85;1.95;;;;;;;28.38;31.95;99665.69;6275294;22;20011;-84
2022/06/22 09:58:28;;;;;;;2.50;1.80;;;;;;;27.18;32.71;99664.69;6302112;22;20504;-84
2022/06/22 10:01:05;;;;;;;2.95;2.10;;;;;;;27.00;34.22;99693.44;6249051;22;20507;-84
2022/06/22 10:03:49;;;;;;;3.53;1.88;;;;;;;27.25;32.78;99691.72;6273805;22;20057;-84
2022/06/22 10:06:42;;;;;;;4.35;2.10;;;;;;;27.92;33.48;99678.31;6275736;22;20022;-86
2022/06/22 10:09:16;;;;;;;;;;;;;;;27.90;32.05;99686.69;6249929;22;20019;-85
2022/06/22 10:11:51;;;;;;;2.17;1.95;;;;;;;27.11;33.86;99687.44;6249835;22;19914;-85
2022/06/22 10:14:38;;;;;;;2.40;1.90;;;;;;;27.45;33.49;99692.94;6249415;22;20015;-86
2022/06/22 10:17:09;;;;;;;3.00;1.85;;;;;;;27.29;34.22;99690.03;6251366;22;20022;-86
2022/06/22 10:19:42;;;;;;;4.60;2.20;;;;;;;26.90;35.00;99687.50;6250710;22;20019;-86
2022/06/22 10:22:13;;;;;;;4.78;2.17;;;;;;;27.13;34.59;99674.19;6252344;22;20011;-85
2022/06/22 10:24:57;;;;;;;4.25;2.25;;;;;;;26.40;34.57;99666.06;6225502;22;20022;-83
2022/06/22 10:27:44;;;;;;;2.92;1.90;;;;;;;26.37;35.79;99656.53;6251599;22;20039;-83
2022/06/22 10:30:15;;;;;;;6.00;2.20;;;;;;;26.51;35.50;99668.59;6304109;22;20019;-84
2022/06/22 10:33:02;;;;;;;6.05;2.25;;;;;;;26.70;36.27;99671.97;6277178;22;20022;-84
2022/06/22 10:35:36;;;;;;;4.15;2.08;;;;;;;26.98;34.94;99662.69;6276692;22;20092;-84
2022/06/22 10:38:24;;;;;;;3.65;2.00;;;;;;;27.32;36.46;99662.50;6277580;22;20090;-84
2022/06/22 10:47:29;;;;;;;3.55;2.00;;;;;;;27.61;34.83;99648.97;6193213;22;20112;-84
2022/06/22 10:50:01;;;;;;;3.92;2.13;;;;;;;27.65;34.59;99635.88;6276403;22;20015;-84
2022/06/22 10:52:34;;;;;;;3.72;1.85;;;;;;;27.74;35.68;99652.41;6250966;22;20030;-84
2022/06/22 10:54:59;;;;;;;;;;;;;;;27.02;35.19;99656.63;6252207;22;20100;-84
2022/06/22 10:57:36;;;;;;;2.70;2.10;;;;;;;26.72;36.12;99662.88;6304098;22;19906;-84
2022/06/22 11:00:26;;;;;;;6.28;2.40;;;;;;;27.03;35.61;99658.94;6304527;22;20045;-86
2022/06/22 11:03:20;;;;;;;3.55;2.25;;;;;;;26.99;36.03;99663.47;6276046;22;20019;-84
2022/06/22 11:05:52;;;;;;;2.80;2.10;;;;;;;27.25;36.08;99660.38;6302876;22;20019;-84
2022/06/22 11:08:55;;;;;;;4.68;2.63;;;;;;;27.25;35.48;99671.78;6251086;22;20039;-84
2022/06/22 11:11:29;;;;;;;5.38;2.40;;;;;;;27.13;35.66;99664.88;6277625;22;20442;-85
2022/06/22 11:14:18;;;;;;;4.65;2.40;;;;;;;27.13;36.24;99656.34;6303906;22;20023;-84
2022/06/22 11:17:08;;;;;;;3.00;2.22;;;;;;;27.09;35.83;99661.63;6276469;22;20434;-84
2022/06/22 11:19:34;;;;;;;3.05;2.28;;;;;;;26.92;36.26;99655.63;6275846;22;20104;-87
2022/06/22 11:22:21;;;;;;;3.05;2.33;;;;;;;27.18;36.07;99644.00;6251961;22;20003;-84
2022/06/22 11:31:19;;;;;;;5.93;2.42;;;;;;;27.36;35.95;99628.72;6276975;22;19911;-86
2022/06/22 11:33:55;;;;;;;4.65;2.50;;;;;;;27.44;36.58;99623.81;6275567;22;20467;-86
2022/06/22 11:36:55;;;;;;;5.93;2.70;;;;;;;27.76;35.66;99615.59;6276979;22;20686;-86
2022/06/22 11:39:33;;;;;;;4.10;2.47;;;;;;;27.97;36.57;99614.66;6275998;22;20022;-87
2022/06/22 11:42:19;;;;;;;4.47;2.42;;;;;;;28.20;34.55;99612.63;6303873;22;20003;-86
2022/06/22 11:48:26;;;;;;;8.95;2.60;;;;;;;28.05;35.97;99609.72;6303197;22;20082;-86
2022/06/22 11:51:03;;;;;;;3.50;2.45;;;;;;;28.22;35.80;99602.19;6206040;22;20015;-86
2022/06/22 11:53:53;;;;;;;4.57;2.50;;;;;;;28.61;35.14;99612.22;6277350;22;20319;-86
2022/06/22 11:56:40;;;;;;;4.68;2.60;;;;;;;28.72;34.47;99620.41;6277232;22;20098;-86
2022/06/22 11:59:44;;;;;;;3.00;2.33;;;;;;;28.89;34.76;99616.19;6248465;22;20026;-86
2022/06/22 12:02:59;;;;;;;4.30;2.47;;;;;;;28.93;34.11;99619.41;6247758;22;20072;-85
2022/06/22 12:05:47;;;;;;;3.92;2.40;;;;;;;29.09;34.44;99612.31;6185210;22;20508;-85
2022/06/22 12:08:36;;;;;;;2.83;2.40;;;;;;;29.10;34.74;99610.97;6275880;22;20011;-85
2022/06/22 12:11:10;;;;;;;4.55;2.47;;;;;;;29.26;35.05;99605.97;6201871;22;20437;-85
2022/06/22 12:16:57;;;;;;;3.25;2.50;;;;;;;29.62;34.71;99604.28;6276664;22;20014;-85
2022/06/22 12:19:55;;;;;;;5.40;2.60;;;;;;;29.68;34.37;99606.16;6284407;22;20437;-85
2022/06/22 12:22:42;;;;;;;4.80;2.65;;;;;;;29.33;34.27;99594.53;6223981;22;20064;-85
2022/06/22 12:25:30;;;;;;;6.55;2.72;;;;;;;29.62;34.44;99598.56;6251476;22;20019;-85
2022/06/22 12:28:20;;;;;;;5.18;2.88;;;;;;;29.40;34.53;99598.72;6226439;22;20062;-85
2022/06/22 12:30:56;;;;;;;5.65;2.90;;;;;;;28.68;35.74;99605.72;6277122;22;20412;-85
2022/06/22 12:33:26;;;;;;;3.97;2.90;;;;;;;28.77;36.55;99597.94;6251702;22;20379;-82
2022/06/22 12:35:56;;;;;;;4.03;2.80;;;;;;;29.18;35.98;99611.72;6252284;22;20068;-85
2022/06/22 12:38:37;;;;;;;6.13;3.10;;;;;;;29.11;36.07;99609.66;6278535;22;20082;-85
2022/06/22 12:41:09;;;;;;;4.57;3.03;;;;;;;29.19;36.77;99607.53;6252161;22;20072;-84
2022/06/22 12:43:53;;;;;;;5.25;3.20;;;;;;;29.20;36.31;99614.72;6278257;22;20385;-84
2022/06/22 12:46:45;;;;;;;6.40;3.13;;;;;;;28.86;36.81;99608.78;6278109;22;20401;-85
2022/06/22 12:49:31;;;;;;;4.93;3.17;;;;;;;28.73;37.80;99601.19;6252186;22;20330;-84
2022/06/22 12:52:05;;;;;;;4.60;3.70;;;;;;;28.45;38.56;99605.00;6277980;22;20011;-84